Un Karadeniz — TCTD3 — position and weather

sailwx.info

Track history (hours):
 
Tides and Currents Weather Stations Pressure Air Temp Water Temp Dewpoint Dewpoint Depression Visibility Wind Speed Wind Dir Waves Ship Positions

Un Karadeniz

Last reported at 2015-May-25 15:31 UTC. Time now 2015-May-26 09:50 UTC.
Position N 36°48' E 023°32'.

Length 193 m; draft 6.4 m.

Type: Ship (hazmat cat A). MMSI: 271002571.

Date/timePositionNaut miles runAvg speedWind from/ knotsBaromVisibWave heightAir tempDewpointWater temp
2015-May-25 15:31N 36°48' E 023°32'2119.2
2015-May-25 14:25N 37°06' E 023°46'1719.7
2015-May-25 13:34N 37°20' E 023°58'2819.2
2015-May-25 12:06N 37°43' E 024°18'5319.3
2015-May-25 09:20N 38°27' E 024°56'21416.7
2015-May-24 20:32N 40°50' E 028°22'1818.3
2015-May-24 19:33N 40°52' E 028°46'1818.5
2015-May-24 18:33N 40°50' E 029°10'5 4.9
2015-May-24 17:33N 40°51' E 029°16'0 0.0
2015-May-24 16:33N 40°51' E 029°16'0 0.0
2015-May-24 15:33N 40°51' E 029°16'0 0.0
2015-May-24 14:33N 40°51' E 029°16'0 0.0
2015-May-24 13:33N 40°51' E 029°16'0 0.0
2015-May-24 12:33N 40°51' E 029°16'0 0.0
2015-May-24 11:33N 40°51' E 029°16'0 0.0
2015-May-24 10:33N 40°51' E 029°16'0 0.0
2015-May-24 09:33N 40°51' E 029°16'0 0.0
2015-May-24 08:33N 40°51' E 029°16'0 0.0
2015-May-24 07:33N 40°51' E 029°16'0 0.2
2015-May-24 06:33N 40°51' E 029°16'1717.0
2015-May-24 05:33N 40°46' E 028°55'1918.7
2015-May-24 04:33N 40°43' E 028°31'11616.5
2015-May-23 21:31N 40°01' E 026°09'9418.8
2015-May-23 16:32N 38°40' E 025°06'1818.8
2015-May-23 15:33N 38°24' E 024°56'4119.2
2015-May-23 13:26N 37°48' E 024°32'2118.7
2015-May-23 12:19N 37°30' E 024°19'1418.9
2015-May-23 11:33N 37°19' E 024°07'1919.1
2015-May-23 10:33N 37°04' E 023°52'1919.1
2015-May-23 09:32N 36°49' E 023°36'1919.0
2015-May-23 08:33N 36°34' E 023°22'22617.4
2015-May-22 19:33N 38°55' E 019°38'1919.3
2015-May-22 18:33N 39°11' E 019°25'2019.7
2015-May-22 17:33N 39°28' E 019°11'2019.7
2015-May-22 16:33N 39°44' E 018°58'  
2015-May-19 05:23N 39°45' E 018°57'1818.4
2015-May-19 04:23N 39°29' E 019°10'26917.0
2015-May-18 12:32N 36°25' E 023°19'1818.5
2015-May-18 11:33N 36°26' E 023°42'2018.4
2015-May-18 10:28N 36°28' E 024°07'3818.6
2015-May-18 08:24N 36°30' E 024°54'1618.4
2015-May-18 07:33N 36°31' E 025°14'5518.3
2015-May-18 04:33N 36°29' E 026°22'1918.9
2015-May-18 03:33N 36°29' E 026°45'1918.7
2015-May-18 02:33N 36°29' E 027°09'1918.6
2015-May-18 01:33N 36°30' E 027°32'1818.5
2015-May-18 00:33N 36°30' E 027°55'3717.9
2015-May-17 22:30N 36°22' E 028°39'29013.7
2015-May-17 01:20N 36°48' E 034°39'0 0.0
2015-May-16 23:12N 36°48' E 034°39'0 0.0
2015-May-16 22:33N 36°48' E 034°39'34313.6
2015-May-15 21:17N 36°30' E 027°33'3319.1
2015-May-15 19:33N 36°29' E 026°51'1919.2
2015-May-15 18:33N 36°29' E 026°28'1919.4
2015-May-15 17:33N 36°30' E 026°04'2019.9
2015-May-15 16:33N 36°31' E 025°39'2019.8
2015-May-15 15:33N 36°31' E 025°14'  
Track history (hours):
 
Tides and Currents Weather Stations Pressure Air Temp Water Temp Dewpoint Dewpoint Depression Visibility Wind Speed Wind Dir Waves Ship Positions

Un Karadeniz

Last reported at 2015-May-25 15:31 UTC. Time now 2015-May-26 09:50 UTC.
Position N 36°48' E 023°32'.

Length 193 m; draft 6.4 m.

Type: Ship (hazmat cat A). MMSI: 271002571.

Date/timePositionNaut miles runAvg speedWind from/ knotsBaromVisibWave heightAir tempDewpointWater temp
2015-May-25 15:31N 36°48' E 023°32'2119.2
2015-May-25 14:25N 37°06' E 023°46'1719.7
2015-May-25 13:34N 37°20' E 023°58'2819.2
2015-May-25 12:06N 37°43' E 024°18'5319.3
2015-May-25 09:20N 38°27' E 024°56'21416.7
2015-May-24 20:32N 40°50' E 028°22'1818.3
2015-May-24 19:33N 40°52' E 028°46'1818.5
2015-May-24 18:33N 40°50' E 029°10'5 4.9
2015-May-24 17:33N 40°51' E 029°16'0 0.0
2015-May-24 16:33N 40°51' E 029°16'0 0.0
2015-May-24 15:33N 40°51' E 029°16'0 0.0
2015-May-24 14:33N 40°51' E 029°16'0 0.0
2015-May-24 13:33N 40°51' E 029°16'0 0.0
2015-May-24 12:33N 40°51' E 029°16'0 0.0
2015-May-24 11:33N 40°51' E 029°16'0 0.0
2015-May-24 10:33N 40°51' E 029°16'0 0.0
2015-May-24 09:33N 40°51' E 029°16'0 0.0
2015-May-24 08:33N 40°51' E 029°16'0 0.0
2015-May-24 07:33N 40°51' E 029°16'0 0.2
2015-May-24 06:33N 40°51' E 029°16'1717.0
2015-May-24 05:33N 40°46' E 028°55'1918.7
2015-May-24 04:33N 40°43' E 028°31'11616.5
2015-May-23 21:31N 40°01' E 026°09'9418.8
2015-May-23 16:32N 38°40' E 025°06'1818.8
2015-May-23 15:33N 38°24' E 024°56'4119.2
2015-May-23 13:26N 37°48' E 024°32'2118.7
2015-May-23 12:19N 37°30' E 024°19'1418.9
2015-May-23 11:33N 37°19' E 024°07'1919.1
2015-May-23 10:33N 37°04' E 023°52'1919.1
2015-May-23 09:32N 36°49' E 023°36'1919.0
2015-May-23 08:33N 36°34' E 023°22'22617.4
2015-May-22 19:33N 38°55' E 019°38'1919.3
2015-May-22 18:33N 39°11' E 019°25'2019.7
2015-May-22 17:33N 39°28' E 019°11'2019.7
2015-May-22 16:33N 39°44' E 018°58'  
2015-May-19 05:23N 39°45' E 018°57'1818.4
2015-May-19 04:23N 39°29' E 019°10'26917.0
2015-May-18 12:32N 36°25' E 023°19'1818.5
2015-May-18 11:33N 36°26' E 023°42'2018.4
2015-May-18 10:28N 36°28' E 024°07'3818.6
2015-May-18 08:24N 36°30' E 024°54'1618.4
2015-May-18 07:33N 36°31' E 025°14'5518.3
2015-May-18 04:33N 36°29' E 026°22'1918.9
2015-May-18 03:33N 36°29' E 026°45'1918.7
2015-May-18 02:33N 36°29' E 027°09'1918.6
2015-May-18 01:33N 36°30' E 027°32'1818.5
2015-May-18 00:33N 36°30' E 027°55'3717.9
2015-May-17 22:30N 36°22' E 028°39'29013.7
2015-May-17 01:20N 36°48' E 034°39'0 0.0
2015-May-16 23:12N 36°48' E 034°39'0 0.0
2015-May-16 22:33N 36°48' E 034°39'34313.6
2015-May-15 21:17N 36°30' E 027°33'3319.1
2015-May-15 19:33N 36°29' E 026°51'1919.2
2015-May-15 18:33N 36°29' E 026°28'1919.4
2015-May-15 17:33N 36°30' E 026°04'2019.9
2015-May-15 16:33N 36°31' E 025°39'2019.8
2015-May-15 15:33N 36°31' E 025°14'  

Dump ship's entire track history